Nearby METAR Reports

 

EDLW - Dortmund/Wickede, Germany
Distance from station: OSO 17km
Aktuell: 24/10/2020 04:20
Stark bewölkt
Stark bewölkt
 Wind aus SSW
Wind: SSW 17 km/h
Temperatur: 12°C
Taupunkt: 11°C
Luftfeuchte: 94%
Luftdruck: 1012 hPa
Clouds: Stark bewölkt
Visibility: 10 km
Cloud details: Leicht bewölkt 579 m
Stark bewölkt 884 m
2020/10/24 02:20 EDLW 240220Z AUTO 21009KT 9999 // FEW019/// BKN029/// 12/11 Q1012
EDDL - Duesseldorf, Germany
Distance from station: SW 52km
Aktuell: 24/10/2020 04:20
Stark bewölkt
Stark bewölkt
 Wind aus S
Wind: S 11 km/h
Temperatur: 12°C
Taupunkt: 10°C
Luftfeuchte: 88%
Luftdruck: 1012 hPa
Clouds: Stark bewölkt
Visibility: 10 km
Cloud details: Leicht bewölkt 549 m
Stark bewölkt 792 m
2020/10/24 02:20 EDDL 240220Z 18006KT 9999 FEW018 BKN026 12/10 Q1012 NOSIG
 
EDDG - Muenster/Osnabru, Germany
Distance from station: NNO 67km
Aktuell: 24/10/2020 04:20
Leicht bewölkt
Leicht bewölkt
 Wind aus SSW
Wind: SSW 13 km/h
Temperatur: 12°C
Taupunkt: 11°C
Luftfeuchte: 94%
Luftdruck: 1011 hPa
Clouds: Leicht bewölkt
Visibility: 10 km
Cloud details: Leicht bewölkt 457 m
2020/10/24 02:20 EDDG 240220Z 20007KT 170V230 9999 FEW015 12/11 Q1011 NOSIG
EDLN - Monchengladbach, Germany
Distance from station: WSW 72km
Aktuell: 24/10/2020 04:20
Klar
Klar
 Wind aus SSW
Wind: SSW 7 km/h
Temperatur: 11°C
Taupunkt: 10°C
Luftfeuchte: 94%
Luftdruck: 1012 hPa
Clouds: Klar
Visibility: 10 km
2020/10/24 02:20 EDLN 240220Z AUTO 20004KT 170V230 9999 // NCD 11/10 Q1012
 
EDDK - Koeln/Bonn, Germany
Distance from station: SSW 79km
Aktuell: 24/10/2020 04:20
Leicht bewölkt
Leicht bewölkt
 Wind aus SSO
Wind: SSO 13 km/h
Temperatur: 11°C
Taupunkt: 10°C
Luftfeuchte: 94%
Luftdruck: 1013 hPa
Clouds: Leicht bewölkt
Visibility: 10 km
Cloud details: Leicht bewölkt 853 m
2020/10/24 02:20 EDDK 240220Z 16007KT 9999 FEW028 11/10 Q1013 NOSIG
EDLP - Paderborn/Lippst, Germany
Distance from station: O 85km
Aktuell: 24/10/2020 02:50
NOT Current
Klar
Klar
 Wind aus SW
Wind: SW 17 km/h
Temperatur: 12°C
Taupunkt: 9°C
Luftfeuchte: 82%
Luftdruck: 1012 hPa
Zusammenfassung: Klar
Visibility: greater than 10 km
2020/10/24 00:50 EDLP 240050Z 23009KT CAVOK 12/09 Q1012
 
EDLV - Niederrhein, Germany
Distance from station: W 86km
Aktuell: 23/10/2020 23:50
NOT Current
Klar
Klar
 Wind aus SW
Wind: SW 13 km/h
Temperatur: 14°C
Taupunkt: 11°C
Luftfeuchte: 82%
Luftdruck: 1011 hPa
Zusammenfassung: Klar
Visibility: greater than 10 km
2020/10/23 21:50 EDLV 232150Z 23007KT CAVOK 14/11 Q1011
ETNN - Noervenich (gaf), Germany
Distance from station: SSW 97km
Aktuell: 24/10/2020 04:20
Teilweise bewölkt
Teilweise bewölkt
 Wind aus S
Wind: S 11 km/h
Temperatur: 12°C
Taupunkt: 10°C
Luftfeuchte: 88%
Luftdruck: 1013 hPa
Clouds: Teilweise bewölkt
Visibility: 10 km
Cloud details: Leicht bewölkt 610 m
Teilweise bewölkt 1219 m
2020/10/24 02:20 ETNN 240220Z 17006KT 9999 FEW020 SCT040 12/10 Q1013 BLU+